Time;durP1;ratioP1;P1;durP2;ratioP2;P2;SDS_P1;SDS_P2;PMS_P1;PMS_P2;Temp;Humidity;BMP_temperature;BMP_pressure;BME280_temperature;BME280_humidity;BME280_pressure;Samples;Min_cycle;Max_cycle;Signal;HPM_P1;HPM_P2
2021/07/04 00:00:01;;;;;;;13.80;11.43;;;18.20;99.90;;;;;;5081652;28;20453;-62
2021/07/04 00:02:28;;;;;;;16.50;13.40;;;17.90;99.90;;;;;;5099003;28;20503;-62
2021/07/04 00:04:55;;;;;;;15.17;13.37;;;18.00;99.90;;;;;;5081623;28;20436;-61
2021/07/04 00:07:22;;;;;;;16.20;12.17;;;18.00;99.90;;;;;;5099314;28;20530;-62
2021/07/04 00:09:49;;;;;;;16.93;12.40;;;18.00;99.90;;;;;;5097229;28;20474;-62
2021/07/04 00:12:16;;;;;;;15.50;12.63;;;18.00;99.90;;;;;;5099360;28;20753;-62
2021/07/04 00:14:44;;;;;;;12.93;10.97;;;18.10;99.90;;;;;;5098861;28;20455;-62
2021/07/04 00:17:11;;;;;;;19.97;14.70;;;18.10;99.90;;;;;;5099034;28;20446;-63
2021/07/04 00:19:38;;;;;;;15.53;13.33;;;18.00;99.90;;;;;;5100353;28;20536;-61
2021/07/04 00:22:05;;;;;;;14.50;12.13;;;17.90;99.90;;;;;;5098915;28;20770;-62
2021/07/04 00:24:32;;;;;;;14.03;12.23;;;17.90;99.90;;;;;;5099828;28;20438;-63
2021/07/04 00:26:59;;;;;;;13.90;12.50;;;17.80;99.90;;;;;;5088828;28;20483;-62
2021/07/04 00:29:26;;;;;;;17.10;14.60;;;17.70;99.90;;;;;;5098100;28;20431;-62
2021/07/04 00:31:54;;;;;;;18.33;13.77;;;17.60;99.90;;;;;;5098507;28;20421;-62
2021/07/04 00:34:21;;;;;;;16.70;14.00;;;17.50;99.90;;;;;;5098631;28;20450;-62
2021/07/04 00:36:48;;;;;;;16.63;14.73;;;17.60;99.90;;;;;;5097914;28;20740;-61
2021/07/04 00:39:15;;;;;;;16.77;13.47;;;17.50;99.90;;;;;;5080689;28;20449;-61
2021/07/04 00:41:42;;;;;;;15.33;13.87;;;17.50;99.90;;;;;;5098288;28;20428;-61
2021/07/04 00:44:09;;;;;;;14.97;12.47;;;17.40;99.90;;;;;;5097710;28;20742;-61
2021/07/04 00:46:36;;;;;;;17.73;14.50;;;17.20;99.90;;;;;;5098936;28;20451;-61
2021/07/04 00:49:03;;;;;;;20.10;14.43;;;17.30;99.90;;;;;;5112339;28;20453;-63
2021/07/04 00:51:30;;;;;;;16.90;15.10;;;17.20;99.90;;;;;;5098319;28;20846;-61
2021/07/04 00:53:58;;;;;;;18.13;14.00;;;17.00;99.90;;;;;;5098451;28;20499;-62
2021/07/04 00:56:25;;;;;;;16.20;13.30;;;16.90;99.90;;;;;;5096984;28;20443;-61
2021/07/04 00:58:52;;;;;;;16.50;13.90;;;17.00;99.90;;;;;;5098159;28;20448;-61
2021/07/04 01:01:19;;;;;;;18.13;14.03;;;17.00;99.90;;;;;;5083955;28;20812;-61
2021/07/04 01:03:46;;;;;;;17.77;13.43;;;17.00;99.90;;;;;;5098261;28;20435;-62
2021/07/04 01:06:14;;;;;;;14.10;12.63;;;16.90;99.90;;;;;;5083427;28;20438;-62
2021/07/04 01:08:41;;;;;;;21.60;14.80;;;16.90;99.90;;;;;;5108861;28;20246;-61
2021/07/04 01:11:08;;;;;;;16.80;13.20;;;16.90;99.90;;;;;;5100823;28;20437;-61
2021/07/04 01:13:35;;;;;;;13.83;11.57;;;17.00;99.90;;;;;;5098491;28;20431;-61
2021/07/04 01:16:03;;;;;;;13.37;11.97;;;17.00;99.90;;;;;;5112543;28;20443;-61
2021/07/04 01:18:30;;;;;;;15.10;13.00;;;16.60;99.90;;;;;;5098236;28;20487;-61
2021/07/04 01:21:01;;;;;;;15.53;12.33;;;16.40;99.90;;;;;;5098014;28;20435;-61
2021/07/04 01:23:28;;;;;;;15.77;14.27;;;16.40;99.90;;;;;;5097695;28;20629;-62
2021/07/04 01:25:56;;;;;;;14.23;12.70;;;16.60;99.90;;;;;;5098604;28;20449;-63
2021/07/04 01:28:23;;;;;;;14.65;12.10;;;16.40;99.90;;;;;;5097469;28;21066;-62
2021/07/04 01:30:54;;;;;;;17.03;12.83;;;16.30;99.90;;;;;;5098295;28;20230;-62
2021/07/04 01:33:22;;;;;;;15.33;12.70;;;16.40;99.90;;;;;;5089949;28;20414;-62
2021/07/04 01:35:49;;;;;;;15.90;14.18;;;16.50;99.90;;;;;;5076597;28;20455;-62
2021/07/04 01:38:16;;;;;;;16.50;12.50;;;16.60;99.90;;;;;;5100662;28;20439;-61
2021/07/04 01:40:44;;;;;;;17.03;13.67;;;16.60;99.90;;;;;;5099350;28;20460;-62
2021/07/04 01:43:11;;;;;;;15.13;13.30;;;16.70;99.90;;;;;;5078781;28;20418;-62
2021/07/04 01:45:39;;;;;;;17.42;12.90;;;16.50;99.90;;;;;;5098505;28;20793;-62
2021/07/04 01:48:07;;;;;;;15.33;12.57;;;16.50;99.90;;;;;;5118000;28;20237;-62
2021/07/04 01:50:38;;;;;;;18.40;13.70;;;16.50;99.90;;;;;;5088030;28;20445;-61
2021/07/04 01:53:05;;;;;;;17.85;13.25;;;16.40;99.90;;;;;;5097716;28;20437;-61
2021/07/04 01:55:32;;;;;;;14.27;12.77;;;16.40;99.90;;;;;;5097193;28;20274;-61
2021/07/04 01:57:59;;;;;;;15.40;13.70;;;16.00;99.90;;;;;;5078863;28;20437;-63
2021/07/04 02:00:30;;;;;;;17.13;14.00;;;16.50;99.90;;;;;;5097279;28;20417;-62
2021/07/04 02:03:00;;;;;;;15.43;13.03;;;16.50;99.90;;;;;;5096452;28;20459;-61
2021/07/04 02:05:27;;;;;;;15.60;13.23;;;16.40;99.90;;;;;;5096991;28;20448;-62
2021/07/04 02:07:54;;;;;;;17.58;14.10;;;16.40;99.90;;;;;;5078861;28;20476;-62
2021/07/04 02:10:27;;;;;;;15.50;13.87;;;16.40;99.90;;;;;;5096401;28;20239;-62
2021/07/04 02:12:55;;;;;;;15.27;13.25;;;16.40;99.90;;;;;;5096812;28;20433;-62
2021/07/04 02:15:31;;;;;;;17.33;13.82;;;16.70;99.90;;;;;;5108139;28;20205;-62
2021/07/04 02:18:07;;;;;;;16.58;13.75;;;16.00;99.90;;;;;;5097089;28;20270;-62
2021/07/04 02:20:37;;;;;;;20.85;15.18;;;15.90;99.90;;;;;;5090934;28;20200;-61
2021/07/04 02:23:13;;;;;;;19.25;14.93;;;16.10;99.90;;;;;;5078504;28;20418;-61
2021/07/04 02:25:43;;;;;;;15.40;13.75;;;16.20;99.90;;;;;;5083640;28;20387;-62
2021/07/04 02:28:13;;;;;;;19.10;15.90;;;16.20;99.90;;;;;;5096617;28;20601;-61
2021/07/04 02:30:41;;;;;;;19.15;15.10;;;16.20;99.90;;;;;;5077591;28;20638;-62
2021/07/04 02:33:10;;;;;;;19.58;15.30;;;16.30;99.90;;;;;;5088953;28;20400;-63
2021/07/04 02:35:44;;;;;;;19.42;16.55;;;16.30;99.90;;;;;;5096433;28;20214;-61
2021/07/04 02:38:12;;;;;;;18.92;14.90;;;16.30;99.90;;;;;;5096126;28;20528;-62
2021/07/04 02:40:40;;;;;;;27.60;15.43;;;16.30;99.90;;;;;;5096101;28;20218;-62
2021/07/04 02:43:09;;;;;;;21.23;14.85;;;16.30;99.90;;;;;;5096474;28;20212;-62
2021/07/04 02:45:37;;;;;;;18.13;15.40;;;16.20;99.90;;;;;;5096167;28;20848;-61
2021/07/04 02:48:06;;;;;;;18.02;14.50;;;16.20;99.90;;;;;;5104727;28;20249;-61
2021/07/04 02:50:34;;;;;;;20.42;16.77;;;16.10;99.90;;;;;;5096903;28;20249;-61
2021/07/04 02:53:01;;;;;;;20.33;16.33;;;16.10;99.90;;;;;;5104084;28;20210;-61
2021/07/04 02:55:28;;;;;;;24.17;18.70;;;16.10;99.90;;;;;;5086969;28;20213;-62
2021/07/04 02:57:55;;;;;;;18.80;16.90;;;15.90;99.90;;;;;;5106449;28;20194;-61
2021/07/04 03:00:25;;;;;;;17.92;15.10;;;15.80;99.90;;;;;;5088664;28;20551;-61
2021/07/04 03:02:53;;;;;;;18.70;15.98;;;15.90;99.90;;;;;;5110574;28;20279;-63
2021/07/04 03:05:20;;;;;;;19.35;15.95;;;16.00;99.90;;;;;;5100121;28;20271;-60
2021/07/04 03:07:48;;;;;;;17.55;14.70;;;16.10;99.90;;;;;;5099917;28;20334;-61
2021/07/04 03:10:19;;;;;;;17.85;15.75;;;16.20;99.90;;;;;;5090581;28;20490;-61
2021/07/04 03:12:46;;;;;;;21.30;15.77;;;16.20;99.90;;;;;;5095513;28;20267;-62
2021/07/04 03:15:14;;;;;;;19.20;16.40;;;16.10;99.90;;;;;;5098156;28;20199;-61
2021/07/04 03:17:42;;;;;;;20.20;15.60;;;16.20;99.90;;;;;;5097648;28;20210;-61
2021/07/04 03:20:11;;;;;;;27.00;16.52;;;16.30;99.90;;;;;;5100140;28;20210;-62
2021/07/04 03:22:38;;;;;;;19.63;16.63;;;16.30;99.90;;;;;;5108649;28;20244;-61
2021/07/04 03:25:07;;;;;;;18.17;15.07;;;16.30;99.90;;;;;;5098271;28;20196;-62
2021/07/04 03:27:35;;;;;;;19.73;16.42;;;16.40;99.90;;;;;;5100175;28;20231;-60
2021/07/04 03:30:05;;;;;;;21.67;16.15;;;16.80;99.90;;;;;;5097050;28;20196;-63
2021/07/04 03:32:32;;;;;;;18.40;16.33;;;16.60;99.90;;;;;;5092188;28;20563;-61
2021/07/04 03:34:59;;;;;;;19.07;16.70;;;16.80;99.90;;;;;;5099469;28;20282;-60
2021/07/04 03:37:26;;;;;;;19.85;15.07;;;17.10;99.90;;;;;;5106898;28;20409;-60
2021/07/04 03:39:54;;;;;;;16.30;13.17;;;17.40;99.90;;;;;;5093360;28;20246;-62
2021/07/04 03:42:21;;;;;;;14.97;13.43;;;17.70;99.90;;;;;;5104889;28;20628;-62
2021/07/04 03:44:48;;;;;;;19.73;13.80;;;18.00;99.90;;;;;;5108355;28;20888;-62
2021/07/04 03:47:15;;;;;;;17.53;13.87;;;18.30;99.90;;;;;;5099093;28;20476;-62
2021/07/04 03:49:42;;;;;;;16.13;13.13;;;18.80;99.90;;;;;;5109591;28;20442;-62
2021/07/04 03:52:09;;;;;;;14.10;12.67;;;19.40;99.90;;;;;;5102581;28;20422;-62
2021/07/04 03:54:36;;;;;;;14.47;13.10;;;19.70;99.90;;;;;;5107738;28;20959;-62
2021/07/04 03:57:21;;;;;;;14.07;12.57;;;20.10;99.90;;;;;;5119335;28;20469;-61
2021/07/04 03:59:53;;;;;;;13.53;12.10;;;20.40;99.90;;;;;;5110496;28;20503;-63
2021/07/04 04:02:21;;;;;;;15.67;13.13;;;20.70;99.90;;;;;;5098756;28;20790;-61
2021/07/04 04:04:49;;;;;;;13.57;12.20;;;21.10;99.90;;;;;;5107221;28;20465;-60
2021/07/04 04:07:16;;;;;;;16.23;12.83;;;21.00;99.90;;;;;;5103774;28;20492;-60
2021/07/04 04:09:43;;;;;;;15.00;13.40;;;20.80;99.90;;;;;;5106709;28;20444;-62
2021/07/04 04:12:10;;;;;;;17.30;14.20;;;20.90;99.90;;;;;;5106164;28;20429;-62
2021/07/04 04:14:37;;;;;;;14.83;13.37;;;20.90;99.90;;;;;;5118477;28;20416;-61
2021/07/04 04:17:05;;;;;;;17.33;14.50;;;21.00;99.90;;;;;;5108053;28;20414;-60
2021/07/04 04:19:33;;;;;;;15.87;13.10;;;21.00;99.90;;;;;;5081155;28;20477;-60
2021/07/04 04:22:00;;;;;;;14.83;13.43;;;21.20;99.90;;;;;;5105935;28;20421;-60
2021/07/04 04:24:27;;;;;;;15.77;12.20;;;21.10;99.90;;;;;;5099572;28;20413;-60
2021/07/04 04:26:54;;;;;;;14.97;13.33;;;21.00;99.90;;;;;;5098905;28;20746;-60
2021/07/04 04:29:22;;;;;;;15.90;13.47;;;20.50;99.90;;;;;;5098755;28;20479;-61
2021/07/04 04:31:49;;;;;;;14.47;12.83;;;20.60;99.90;;;;;;5096295;28;20632;-61
2021/07/04 04:34:16;;;;;;;13.87;12.47;;;20.50;99.90;;;;;;5107776;28;20429;-60
2021/07/04 04:36:43;;;;;;;11.83;10.83;;;20.40;99.90;;;;;;5102727;28;20515;-60
2021/07/04 04:39:11;;;;;;;13.37;12.00;;;20.30;99.90;;;;;;5098328;28;20421;-60
2021/07/04 04:41:38;;;;;;;13.77;12.30;;;20.20;99.90;;;;;;5080539;28;20484;-60
2021/07/04 04:44:06;;;;;;;12.90;11.60;;;20.20;99.90;;;;;;5117174;28;20670;-60
2021/07/04 04:46:34;;;;;;;15.10;12.20;;;20.30;99.90;;;;;;5105849;28;20561;-61
2021/07/04 04:49:01;;;;;;;12.60;11.23;;;20.20;99.90;;;;;;5098359;28;20486;-60
2021/07/04 04:51:28;;;;;;;17.90;11.13;;;20.20;99.90;;;;;;5098609;28;20470;-61
2021/07/04 04:53:55;;;;;;;15.20;12.30;;;20.20;99.90;;;;;;5100782;28;20417;-61
2021/07/04 04:56:23;;;;;;;12.33;10.93;;;20.30;99.90;;;;;;5090585;28;20417;-60
2021/07/04 04:58:50;;;;;;;14.87;11.50;;;20.40;99.90;;;;;;5097343;28;20580;-62
2021/07/04 05:01:17;;;;;;;14.37;11.90;;;20.60;99.90;;;;;;5085859;28;20433;-61
2021/07/04 05:03:45;;;;;;;18.10;12.57;;;20.80;99.90;;;;;;5097640;28;20414;-60
2021/07/04 05:06:12;;;;;;;13.03;11.77;;;21.00;99.90;;;;;;5090295;28;20441;-61
2021/07/04 05:08:39;;;;;;;11.67;10.47;;;21.00;99.90;;;;;;5099335;28;20469;-60
2021/07/04 05:11:09;;;;;;;12.10;10.80;;;21.20;99.90;;;;;;5088904;28;20407;-62
2021/07/04 05:13:37;;;;;;;14.63;11.87;;;21.30;99.90;;;;;;5087314;28;20640;-61
2021/07/04 05:16:05;;;;;;;14.73;10.80;;;20.90;99.90;;;;;;5084681;28;20407;-61
2021/07/04 05:18:34;;;;;;;11.60;10.60;;;21.20;99.90;;;;;;5088483;28;20636;-61
2021/07/04 05:21:02;;;;;;;10.00;9.13;;;21.20;99.90;;;;;;5092820;28;20426;-61
2021/07/04 05:23:29;;;;;;;12.10;10.87;;;21.40;99.90;;;;;;5105109;28;20427;-61
2021/07/04 05:25:58;;;;;;;11.07;9.97;;;21.30;99.90;;;;;;5097944;28;20444;-60
2021/07/04 05:28:26;;;;;;;12.50;10.20;;;21.70;99.90;;;;;;5097522;28;20434;-63
2021/07/04 05:30:53;;;;;;;12.30;10.87;;;21.90;99.90;;;;;;5094802;28;20441;-62
2021/07/04 05:33:20;;;;;;;11.40;10.30;;;21.70;99.90;;;;;;5097377;28;21033;-62
2021/07/04 05:35:48;;;;;;;13.57;11.57;;;21.60;99.90;;;;;;5097868;28;20473;-61
2021/07/04 05:38:19;;;;;;;13.90;12.27;;;21.70;99.90;;;;;;5082869;28;20451;-61
2021/07/04 05:40:48;;;;;;;12.10;10.80;;;21.80;99.90;;;;;;5083948;28;20534;-61
2021/07/04 05:43:16;;;;;;;12.63;10.80;;;22.20;99.90;;;;;;5097420;28;20766;-61
2021/07/04 05:45:44;;;;;;;12.50;11.20;;;22.20;99.90;;;;;;5097320;28;20641;-61
2021/07/04 05:48:11;;;;;;;12.70;11.30;;;22.20;99.90;;;;;;5097402;28;20595;-61
2021/07/04 05:50:38;;;;;;;11.03;9.90;;;22.20;99.90;;;;;;5097430;28;20499;-61
2021/07/04 05:53:05;;;;;;;14.57;11.27;;;22.30;99.90;;;;;;5097715;28;20738;-61
2021/07/04 05:55:33;;;;;;;12.93;11.73;;;22.60;99.90;;;;;;5096967;28;20770;-62
2021/07/04 05:58:00;;;;;;;13.23;10.63;;;22.90;99.90;;;;;;5097608;28;20687;-62
2021/07/04 06:00:27;;;;;;;10.97;9.87;;;23.00;99.90;;;;;;5096902;28;20420;-61
2021/07/04 06:02:54;;;;;;;10.90;9.47;;;23.00;99.90;;;;;;5097560;28;20561;-61
2021/07/04 06:05:22;;;;;;;9.90;9.00;;;23.00;99.90;;;;;;5097209;28;20446;-60
2021/07/04 06:07:49;;;;;;;10.87;9.40;;;23.10;99.90;;;;;;5096584;28;20435;-61
2021/07/04 06:10:17;;;;;;;10.27;9.37;;;23.20;99.90;;;;;;5096990;28;20499;-61
2021/07/04 06:12:44;;;;;;;10.67;9.67;;;23.60;99.90;;;;;;5111202;28;20472;-60
2021/07/04 06:15:14;;;;;;;10.93;9.80;;;24.20;99.90;;;;;;5086881;28;20472;-60
2021/07/04 06:17:41;;;;;;;9.97;9.20;;;24.90;99.90;;;;;;5075497;28;20429;-60
2021/07/04 06:20:11;;;;;;;9.80;8.80;;;25.60;99.90;;;;;;5105638;28;20434;-61
2021/07/04 06:22:38;;;;;;;9.97;9.27;;;26.50;99.10;;;;;;5105016;28;20648;-60
2021/07/04 06:25:11;;;;;;;12.23;10.37;;;26.90;97.30;;;;;;5096927;28;20414;-60
2021/07/04 06:27:39;;;;;;;9.57;8.77;;;27.20;97.30;;;;;;5096614;28;20502;-60
2021/07/04 06:30:12;;;;;;;10.77;9.80;;;27.60;96.40;;;;;;5096212;28;20468;-60
2021/07/04 06:32:40;;;;;;;11.00;10.00;;;28.50;93.90;;;;;;5079142;28;20645;-62
2021/07/04 06:35:10;;;;;;;10.80;9.90;;;29.40;91.50;;;;;;5094839;28;20475;-60
2021/07/04 06:37:37;;;;;;;10.80;9.80;;;28.50;93.20;;;;;;5097137;28;20511;-60
2021/07/04 06:40:06;;;;;;;10.20;9.40;;;30.20;90.50;;;;;;5096033;28;20449;-60
2021/07/04 06:42:34;;;;;;;10.00;9.27;;;30.40;89.50;;;;;;5097054;28;20852;-60
2021/07/04 06:45:01;;;;;;;10.83;10.10;;;31.50;84.70;;;;;;5096907;28;20444;-60
2021/07/04 06:47:28;;;;;;;10.60;9.90;;;32.10;81.30;;;;;;5096245;28;20453;-61
2021/07/04 06:49:56;;;;;;;10.53;9.77;;;32.90;76.80;;;;;;5096299;28;20571;-61
2021/07/04 06:52:23;;;;;;;10.63;9.97;;;32.70;75.70;;;;;;5096127;28;20439;-61
2021/07/04 06:54:50;;;;;;;10.47;9.77;;;32.50;74.10;;;;;;5099083;28;20790;-60
2021/07/04 06:57:27;;;;;;;9.93;9.33;;;32.50;73.40;;;;;;5095647;28;20465;-61
2021/07/04 06:59:59;;;;;;;10.20;9.60;;;33.20;71.20;;;;;;5097067;28;20671;-62
2021/07/04 07:02:27;;;;;;;11.20;10.60;;;34.60;66.20;;;;;;5093129;28;20470;-60
2021/07/04 07:04:54;;;;;;;11.03;10.33;;;34.60;65.20;;;;;;5088153;28;20447;-60
2021/07/04 07:07:22;;;;;;;11.20;10.50;;;34.90;62.10;;;;;;5078183;28;20953;-62
2021/07/04 07:09:50;;;;;;;11.13;10.10;;;36.00;59.10;;;;;;5095998;28;20835;-60
2021/07/04 07:12:17;;;;;;;11.10;10.50;;;36.70;58.10;;;;;;5098572;28;20774;-60
2021/07/04 07:14:44;;;;;;;11.87;11.17;;;37.60;55.60;;;;;;5084598;28;20443;-60
2021/07/04 07:17:12;;;;;;;10.77;10.17;;;39.20;52.90;;;;;;5096680;28;20764;-60
2021/07/04 07:19:39;;;;;;;12.03;11.23;;;39.40;50.70;;;;;;5079654;28;20527;-61
2021/07/04 07:22:06;;;;;;;11.40;10.80;;;40.30;48.60;;;;;;5096220;28;20446;-60
2021/07/04 07:24:34;;;;;;;12.20;11.00;;;39.60;48.10;;;;;;5096488;28;20447;-61
2021/07/04 07:27:01;;;;;;;11.87;11.17;;;39.50;47.60;;;;;;5089210;28;20462;-61
2021/07/04 07:29:28;;;;;;;11.60;10.80;;;40.50;47.00;;;;;;5097504;28;20475;-61
2021/07/04 07:31:56;;;;;;;12.77;11.97;;;40.60;46.40;;;;;;5095352;28;20442;-61
2021/07/04 07:34:23;;;;;;;11.63;10.93;;;41.90;44.20;;;;;;5079199;28;20441;-60
2021/07/04 07:36:50;;;;;;;12.27;11.57;;;41.20;44.00;;;;;;5095717;28;20492;-61
2021/07/04 07:39:17;;;;;;;11.13;10.53;;;41.10;43.30;;;;;;5089024;28;20450;-61
2021/07/04 07:41:44;;;;;;;10.47;9.97;;;40.60;43.00;;;;;;5093604;28;20442;-60
2021/07/04 07:44:13;;;;;;;10.30;9.77;;;40.70;42.50;;;;;;5099564;28;20443;-62
2021/07/04 07:46:41;;;;;;;11.30;10.60;;;39.70;42.60;;;;;;5099831;28;20443;-61
2021/07/04 07:49:09;;;;;;;11.13;10.53;;;36.60;46.80;;;;;;5084190;28;20479;-61
2021/07/04 07:51:36;;;;;;;10.30;9.70;;;37.00;46.50;;;;;;5099596;28;20762;-60
2021/07/04 07:54:04;;;;;;;10.80;10.20;;;38.00;45.70;;;;;;5098037;28;20439;-61
2021/07/04 07:56:31;;;;;;;10.23;9.73;;;40.20;43.00;;;;;;5099670;28;20773;-59
2021/07/04 07:58:58;;;;;;;10.20;9.70;;;40.50;41.70;;;;;;5097906;28;21023;-59
2021/07/04 08:01:26;;;;;;;9.03;8.63;;;42.10;40.50;;;;;;5098919;28;20458;-60
2021/07/04 08:03:53;;;;;;;10.53;9.93;;;43.40;39.00;;;;;;5098255;28;20439;-60
2021/07/04 08:06:20;;;;;;;10.70;10.03;;;44.10;37.20;;;;;;5100900;28;20793;-59
2021/07/04 08:08:47;;;;;;;10.57;10.07;;;42.70;37.90;;;;;;5087201;28;20492;-60
2021/07/04 08:11:14;;;;;;;9.60;9.17;;;42.80;36.80;;;;;;5086687;28;20431;-59
2021/07/04 08:13:41;;;;;;;9.40;8.90;;;43.40;36.50;;;;;;5088108;28;20754;-61
2021/07/04 08:16:09;;;;;;;10.30;9.60;;;41.50;37.40;;;;;;5093121;28;20444;-61
2021/07/04 08:18:36;;;;;;;11.10;10.50;;;41.40;37.60;;;;;;5096430;28;20450;-60
2021/07/04 08:21:03;;;;;;;10.27;9.63;;;42.40;37.00;;;;;;5102093;28;20438;-60
2021/07/04 08:23:30;;;;;;;9.30;8.90;;;43.20;36.10;;;;;;5106977;28;20447;-61
2021/07/04 08:25:57;;;;;;;10.30;9.90;;;43.30;36.00;;;;;;5099088;28;20447;-60
2021/07/04 08:28:24;;;;;;;10.20;9.60;;;43.10;35.80;;;;;;5095391;28;20446;-62
2021/07/04 08:30:51;;;;;;;10.20;9.63;;;43.90;34.40;;;;;;5098648;28;20982;-60
2021/07/04 08:33:18;;;;;;;9.90;9.40;;;44.10;35.00;;;;;;5098074;28;20446;-60
2021/07/04 08:35:46;;;;;;;9.30;8.80;;;43.30;35.00;;;;;;5098238;28;20447;-61
2021/07/04 08:38:13;;;;;;;11.03;10.30;;;41.70;36.20;;;;;;5098384;28;20473;-60
2021/07/04 08:40:40;;;;;;;10.00;9.50;;;39.60;38.70;;;;;;5098330;28;20660;-61
2021/07/04 08:43:07;;;;;;;10.50;10.00;;;37.60;41.70;;;;;;5098527;28;20439;-60
2021/07/04 08:45:36;;;;;;;10.47;9.87;;;35.70;44.00;;;;;;5098486;28;20439;-60
2021/07/04 08:48:06;;;;;;;10.20;9.60;;;34.30;45.80;;;;;;5098358;28;20454;-61
2021/07/04 08:50:34;;;;;;;10.00;9.50;;;32.60;47.80;;;;;;5097738;28;20516;-62
2021/07/04 08:53:02;;;;;;;10.00;9.50;;;31.30;50.00;;;;;;5097315;28;20447;-60
2021/07/04 08:55:29;;;;;;;9.50;8.90;;;30.70;52.50;;;;;;5085760;28;20794;-61
2021/07/04 08:57:59;;;;;;;9.90;9.30;;;30.10;54.10;;;;;;5098482;28;20480;-61
2021/07/04 09:00:27;;;;;;;10.20;9.50;;;29.70;54.50;;;;;;5097343;28;21301;-61
2021/07/04 09:02:54;;;;;;;9.40;8.90;;;29.50;55.40;;;;;;5096942;28;20475;-60
2021/07/04 09:05:22;;;;;;;9.37;8.67;;;29.20;55.60;;;;;;5100649;28;20443;-61
2021/07/04 09:07:50;;;;;;;9.20;8.60;;;29.40;55.20;;;;;;5097356;28;20449;-60
2021/07/04 09:10:21;;;;;;;9.80;9.10;;;29.20;54.60;;;;;;5097430;28;20604;-61
2021/07/04 09:12:53;;;;;;;9.10;8.57;;;28.90;54.80;;;;;;5097698;28;20435;-61
2021/07/04 09:15:26;;;;;;;8.77;8.10;;;28.50;57.30;;;;;;5097740;28;20431;-61
2021/07/04 09:17:57;;;;;;;8.13;7.63;;;28.40;58.10;;;;;;5097280;28;20492;-61
2021/07/04 09:20:30;;;;;;;10.30;9.60;;;28.00;57.70;;;;;;5106600;28;20491;-61
2021/07/04 09:22:59;;;;;;;9.87;9.27;;;27.60;58.00;;;;;;5099315;28;20765;-61
2021/07/04 09:25:28;;;;;;;9.60;9.00;;;27.40;60.50;;;;;;5090219;28;21050;-61
2021/07/04 09:28:07;;;;;;;9.13;8.43;;;27.70;58.30;;;;;;5088289;28;20406;-61
2021/07/04 09:30:45;;;;;;;9.17;8.57;;;28.10;58.00;;;;;;5091424;28;20483;-60
2021/07/04 09:33:33;;;;;;;9.50;8.70;;;28.20;57.70;;;;;;5090765;28;20436;-60
2021/07/04 09:36:01;;;;;;;9.37;8.77;;;28.50;58.30;;;;;;5095411;28;20446;-61
2021/07/04 09:38:39;;;;;;;8.83;8.03;;;28.70;58.30;;;;;;5101177;28;20464;-61
2021/07/04 09:41:09;;;;;;;8.40;7.90;;;28.70;56.50;;;;;;5096309;28;20447;-61
2021/07/04 09:43:37;;;;;;;9.50;8.80;;;28.50;57.40;;;;;;5096883;28;20441;-61
2021/07/04 09:46:08;;;;;;;8.70;8.10;;;28.30;56.80;;;;;;5096110;28;20617;-61
2021/07/04 09:48:43;;;;;;;9.13;8.53;;;28.40;57.10;;;;;;5096736;28;20874;-60
2021/07/04 09:51:18;;;;;;;8.53;7.93;;;28.50;56.60;;;;;;5096986;28;20534;-61
2021/07/04 09:53:50;;;;;;;9.60;8.90;;;28.40;56.60;;;;;;5097122;28;20832;-61
2021/07/04 09:56:29;;;;;;;9.00;8.50;;;28.60;56.30;;;;;;5096610;28;20443;-61
2021/07/04 09:58:59;;;;;;;9.57;8.77;;;28.40;56.40;;;;;;5096473;28;20434;-61
2021/07/04 10:01:46;;;;;;;8.53;7.97;;;28.40;57.00;;;;;;5091480;28;20463;-61
2021/07/04 10:04:31;;;;;;;9.40;8.50;;;28.40;56.80;;;;;;5093296;28;20416;-61
2021/07/04 10:06:59;;;;;;;9.47;8.87;;;28.70;57.20;;;;;;5096666;28;20504;-62
2021/07/04 10:09:29;;;;;;;9.57;8.87;;;28.30;57.10;;;;;;5095500;28;20493;-61
2021/07/04 10:11:57;;;;;;;9.20;8.53;;;28.20;57.90;;;;;;5096638;28;20427;-62
2021/07/04 10:14:25;;;;;;;9.27;8.70;;;28.20;57.80;;;;;;5096046;28;20752;-62
2021/07/04 10:16:53;;;;;;;10.57;9.80;;;27.60;58.60;;;;;;5097232;28;20471;-62
2021/07/04 10:19:22;;;;;;;9.30;8.70;;;27.70;58.60;;;;;;5095966;28;20426;-61
2021/07/04 10:21:54;;;;;;;8.37;7.77;;;27.40;58.80;;;;;;5113035;28;20913;-64
2021/07/04 10:24:22;;;;;;;9.17;8.67;;;27.30;58.70;;;;;;5098177;28;20507;-61
2021/07/04 10:26:50;;;;;;;10.37;9.67;;;27.40;58.90;;;;;;5091631;28;20500;-61
2021/07/04 10:29:21;;;;;;;8.70;8.10;;;27.80;58.20;;;;;;5079402;28;21030;-61
2021/07/04 10:31:48;;;;;;;8.90;8.20;;;27.70;59.00;;;;;;5093561;28;20472;-61
2021/07/04 10:34:18;;;;;;;7.87;7.37;;;27.70;60.50;;;;;;5096094;28;20444;-61
2021/07/04 10:36:55;;;;;;;9.17;8.57;;;27.80;59.70;;;;;;5095900;28;20416;-62
2021/07/04 10:39:24;;;;;;;9.70;9.00;;;27.60;60.70;;;;;;5096447;28;20521;-62
2021/07/04 10:41:59;;;;;;;9.00;8.40;;;27.20;61.80;;;;;;5078188;28;20909;-62
2021/07/04 10:44:40;;;;;;;9.93;9.27;;;26.50;65.50;;;;;;5089616;28;20410;-61
2021/07/04 10:47:13;;;;;;;10.40;9.60;;;25.90;68.00;;;;;;5092045;28;20438;-63
2021/07/04 10:49:46;;;;;;;8.70;8.20;;;25.90;69.20;;;;;;5104472;28;20756;-62
2021/07/04 10:52:18;;;;;;;9.83;8.93;;;25.60;69.50;;;;;;5097498;28;20424;-62
2021/07/04 10:54:54;;;;;;;8.83;8.30;;;25.60;70.20;;;;;;5099035;28;20425;-63
2021/07/04 10:57:34;;;;;;;10.07;9.47;;;25.30;70.20;;;;;;5095897;28;20849;-62
2021/07/04 11:00:04;;;;;;;9.27;8.67;;;24.80;72.20;;;;;;5096704;28;20621;-60
2021/07/04 11:02:56;;;;;;;9.87;9.17;;;24.90;72.80;;;;;;5096107;28;20434;-62
2021/07/04 11:05:36;;;;;;;9.43;8.83;;;25.10;71.60;;;;;;5085014;28;20744;-62
2021/07/04 11:08:14;;;;;;;9.27;8.50;;;25.40;72.50;;;;;;5094802;28;20450;-61
2021/07/04 11:10:50;;;;;;;9.30;8.67;;;25.30;72.20;;;;;;5096620;28;20475;-62
2021/07/04 11:13:17;;;;;;;8.83;8.23;;;25.30;72.40;;;;;;5082615;28;20410;-61
2021/07/04 11:15:50;;;;;;;9.20;8.60;;;25.10;72.40;;;;;;5099335;28;20450;-61
2021/07/04 11:18:18;;;;;;;9.50;8.90;;;25.20;72.60;;;;;;5093965;28;20408;-61
2021/07/04 11:20:47;;;;;;;10.03;9.13;;;25.20;72.60;;;;;;5093769;28;20446;-60
2021/07/04 11:23:20;;;;;;;9.20;8.50;;;25.40;73.50;;;;;;5096940;28;20402;-62
2021/07/04 11:25:56;;;;;;;8.50;7.97;;;25.50;72.30;;;;;;5090269;28;20480;-62
2021/07/04 11:28:33;;;;;;;9.60;8.80;;;25.60;72.40;;;;;;5100340;28;20438;-62
2021/07/04 11:31:06;;;;;;;9.50;8.80;;;25.40;71.20;;;;;;5100442;28;20445;-62
2021/07/04 11:33:44;;;;;;;9.60;8.63;;;25.10;72.90;;;;;;5099871;28;20499;-62
2021/07/04 11:36:14;;;;;;;9.80;9.10;;;25.40;71.50;;;;;;5100241;28;20437;-63
2021/07/04 11:39:05;;;;;;;8.90;8.27;;;25.70;70.70;;;;;;5085863;28;20436;-62
2021/07/04 11:41:41;;;;;;;8.93;8.30;;;25.90;69.90;;;;;;5082577;28;20452;-61
2021/07/04 11:44:11;;;;;;;8.43;7.80;;;25.70;70.90;;;;;;5105819;28;20438;-62
2021/07/04 11:46:41;;;;;;;8.83;8.20;;;25.70;71.30;;;;;;5107921;28;20447;-60
2021/07/04 11:49:09;;;;;;;8.10;7.50;;;25.80;72.00;;;;;;5097603;28;20887;-62
2021/07/04 11:51:41;;;;;;;10.10;9.30;;;26.50;70.20;;;;;;5082259;28;20492;-62
2021/07/04 11:54:22;;;;;;;8.43;7.83;;;26.60;68.80;;;;;;5097865;28;20477;-61
2021/07/04 11:56:52;;;;;;;9.17;8.47;;;26.60;68.90;;;;;;5082607;28;20443;-62
2021/07/04 11:59:25;;;;;;;9.10;8.40;;;26.60;67.80;;;;;;5099332;28;20461;-62
2021/07/04 12:02:00;;;;;;;8.63;8.13;;;26.50;68.20;;;;;;5100385;28;20462;-62
2021/07/04 12:04:44;;;;;;;9.43;8.63;;;26.40;68.60;;;;;;5101085;28;20440;-63
2021/07/04 12:07:15;;;;;;;8.63;7.97;;;26.40;69.00;;;;;;5097462;28;20541;-62
2021/07/04 12:09:45;;;;;;;9.77;9.03;;;26.50;68.00;;;;;;5080983;28;20490;-61
2021/07/04 12:12:26;;;;;;;10.00;9.30;;;26.70;67.90;;;;;;5098352;28;20769;-62
2021/07/04 12:14:59;;;;;;;10.63;8.03;;;26.60;66.30;;;;;;5097628;28;20431;-61
2021/07/04 12:17:42;;;;;;;8.57;7.97;;;26.70;67.40;;;;;;5097730;28;20439;-62
2021/07/04 12:20:19;;;;;;;8.80;8.30;;;27.00;67.80;;;;;;5098882;28;20757;-62
2021/07/04 12:23:02;;;;;;;9.30;8.50;;;27.30;65.40;;;;;;5108766;28;20651;-61
2021/07/04 12:25:36;;;;;;;9.10;8.50;;;27.30;66.20;;;;;;5086459;28;20490;-61
2021/07/04 12:28:04;;;;;;;7.97;7.47;;;27.60;65.70;;;;;;5099459;28;20659;-61
2021/07/04 12:30:36;;;;;;;7.93;7.43;;;28.00;63.90;;;;;;5106340;28;20479;-61
2021/07/04 12:33:08;;;;;;;10.33;9.53;;;28.20;63.00;;;;;;5099572;28;20445;-62
2021/07/04 12:35:42;;;;;;;8.10;7.60;;;28.50;63.40;;;;;;5081097;28;20479;-62
2021/07/04 12:38:15;;;;;;;9.00;8.30;;;28.20;62.40;;;;;;5099169;28;20768;-62
2021/07/04 12:41:10;;;;;;;8.87;8.17;;;28.30;63.00;;;;;;5098874;28;20508;-62
2021/07/04 12:43:45;;;;;;;8.60;8.00;;;28.30;64.20;;;;;;5099265;28;20459;-62